createdAt,value
2023-05-19T00:00:20.625Z,26.1
2023-05-19T00:06:12.915Z,26
2023-05-19T00:11:48.830Z,26
2023-05-19T00:17:40.944Z,26
2023-05-19T00:23:33.492Z,26
2023-05-19T00:29:24.884Z,25.9
2023-05-19T00:35:17.209Z,25.9
2023-05-19T00:41:09.104Z,25.9
2023-05-19T00:46:45.048Z,25.9
2023-05-19T00:52:21.973Z,25.9
2023-05-19T00:57:59.108Z,25.9
2023-05-19T01:03:35.795Z,25.9
2023-05-19T01:09:28.384Z,26
2023-05-19T01:15:04.534Z,26.3
2023-05-19T01:20:56.640Z,26.8
2023-05-19T01:26:47.904Z,27.3
2023-05-19T01:32:24.929Z,27.8
2023-05-19T01:37:45.243Z,28.3
2023-05-19T01:43:21.672Z,28.8
2023-05-19T01:49:00.378Z,29.3
2023-05-19T01:54:35.748Z,29.8
2023-05-19T02:00:27.612Z,30.3
2023-05-19T02:06:04.207Z,30.8
2023-05-19T02:11:39.854Z,31.2
2023-05-19T02:17:31.899Z,31.6
2023-05-19T02:23:23.793Z,32.1
2023-05-19T02:28:59.748Z,32.5
2023-05-19T02:34:36.805Z,32.9
2023-05-19T02:40:13.160Z,33.3
2023-05-19T02:45:48.615Z,33.5
2023-05-19T02:51:25.632Z,33.6
2023-05-19T02:56:47.075Z,33.7
2023-05-19T03:02:38.865Z,33.8
2023-05-19T03:08:16.173Z,33.9
2023-05-19T03:14:07.847Z,33.9
2023-05-19T03:19:44.193Z,34
2023-05-19T03:25:36.102Z,34
2023-05-19T03:31:28.777Z,34.1
2023-05-19T03:37:20.492Z,34.1
2023-05-19T03:43:12.318Z,34.1
2023-05-19T03:49:04.642Z,34.1
2023-05-19T03:54:55.348Z,34.1
2023-05-19T04:00:32.074Z,34.1
2023-05-19T04:06:24.533Z,34.1
2023-05-19T04:12:15.660Z,34.1
2023-05-19T04:18:07.453Z,34.1
2023-05-19T04:23:59.639Z,34.1
2023-05-19T04:29:50.136Z,34.1
2023-05-19T04:35:42.567Z,34
2023-05-19T04:41:22.240Z,34
2023-05-19T04:47:14.207Z,34
2023-05-19T04:53:08.226Z,33.9
2023-05-19T04:58:59.034Z,33.9
2023-05-19T05:04:35.901Z,33.8
2023-05-19T05:10:27.531Z,33.5
2023-05-19T05:16:19.238Z,33.5
2023-05-19T05:22:11.202Z,33.6
2023-05-19T05:27:47.657Z,33.6
2023-05-19T05:33:09.528Z,33.6
2023-05-19T05:39:00.922Z,33.5
2023-05-19T05:44:39.192Z,33.5
2023-05-19T05:50:31.631Z,33.5
2023-05-19T05:56:19.453Z,33.4
2023-05-19T06:01:55.904Z,33.4
2023-05-19T06:07:33.199Z,33.4
2023-05-19T06:13:25.398Z,33.3
2023-05-19T06:19:02.539Z,33.3
2023-05-19T06:24:39.757Z,33.3
2023-05-19T06:30:16.583Z,39.1
2023-05-19T06:36:12.743Z,46.9
2023-05-19T06:41:49.732Z,44.5
2023-05-19T06:47:28.112Z,42.5
2023-05-19T06:53:05.069Z,41.1
2023-05-19T06:58:50.030Z,48
2023-05-19T07:04:42.756Z,48.7
2023-05-19T07:10:23.574Z,49.3
2023-05-19T07:16:00.201Z,49.7
2023-05-19T07:21:05.237Z,50.1
2023-05-19T07:26:26.098Z,50.4
2023-05-19T07:32:05.580Z,50.3
2023-05-19T07:37:42.258Z,50.7
2023-05-19T07:43:04.087Z,51.1
2023-05-19T07:48:26.199Z,51.6
2023-05-19T07:59:10.091Z,52.3
2023-05-19T08:04:48.265Z,52.6
2023-05-19T08:10:22.683Z,52.9
2023-05-19T08:15:59.733Z,53.3
2023-05-19T08:21:37.018Z,53.6
2023-05-19T08:27:11.836Z,53.9
2023-05-19T08:32:47.729Z,54.3
2023-05-19T08:38:09.274Z,54.6
2023-05-19T08:43:44.458Z,54.9
2023-05-19T08:49:06.177Z,55.3
2023-05-19T08:54:59.731Z,55.6
2023-05-19T09:00:38.289Z,55.9
2023-05-19T09:06:33.370Z,56.3
2023-05-19T09:12:10.186Z,56.6
2023-05-19T09:17:49.582Z,56.9
2023-05-19T09:23:26.315Z,57.2
2023-05-19T09:29:03.177Z,57.6
2023-05-19T09:34:39.339Z,57.6
2023-05-19T09:40:15.712Z,58.1
2023-05-19T09:46:08.092Z,58.4
2023-05-19T09:51:44.367Z,58.2
2023-05-19T09:57:08.258Z,58.5
2023-05-19T10:03:01.909Z,57.8
2023-05-19T10:08:39.559Z,57.4
2023-05-19T10:19:53.831Z,57.3
2023-05-19T10:25:45.327Z,58.5
2023-05-19T10:31:38.969Z,58.7
2023-05-19T10:37:15.912Z,58.1
2023-05-19T10:42:53.606Z,57.2
2023-05-19T10:48:45.229Z,58.1
2023-05-19T10:54:37.844Z,57.1
2023-05-19T11:00:16.354Z,57.5
2023-05-19T11:06:14.628Z,57.4
2023-05-19T11:12:20.021Z,57.9
2023-05-19T11:18:12.497Z,57.1
2023-05-19T11:24:07.774Z,57.9
2023-05-19T11:30:00.838Z,58.6
2023-05-19T11:35:53.750Z,59.1
2023-05-19T11:41:45.985Z,58.6
2023-05-19T11:47:47.381Z,57.6
2023-05-19T11:53:51.620Z,56.7
2023-05-19T11:59:58.112Z,56.6
2023-05-19T12:05:57.360Z,56.8
2023-05-19T12:11:50.802Z,55.8
2023-05-19T12:17:43.987Z,54.9
2023-05-19T12:23:29.552Z,53.5
2023-05-19T12:29:20.581Z,50.4
2023-05-19T12:35:14.382Z,47.7
2023-05-19T12:41:07.031Z,45.6
2023-05-19T12:46:58.964Z,44.1
2023-05-19T12:52:53.881Z,43
2023-05-19T12:58:47.886Z,42.1
2023-05-19T13:04:57.100Z,41.3
2023-05-19T13:10:49.991Z,40.6
2023-05-19T13:16:42.269Z,40.1
2023-05-19T13:22:48.140Z,39.5
2023-05-19T13:28:09.627Z,39.1
2023-05-19T13:33:47.037Z,37.4
2023-05-19T13:39:38.941Z,34.6
2023-05-19T13:45:31.205Z,38.7
2023-05-19T13:51:34.711Z,39.8
2023-05-19T13:57:26.095Z,38.1
2023-05-19T14:03:18.405Z,37.9
2023-05-19T14:08:56.103Z,33.8
2023-05-19T14:15:17.089Z,34.8
2023-05-19T14:21:11.275Z,32.6
2023-05-19T14:27:04.706Z,36.6
2023-05-19T14:32:45.087Z,37.2
2023-05-19T14:38:38.295Z,37.3
2023-05-19T14:44:15.376Z,36.6
2023-05-19T14:49:53.456Z,36.4
2023-05-19T14:55:32.135Z,36.4
2023-05-19T15:01:21.236Z,36.4
2023-05-19T15:12:56.304Z,34.1
2023-05-19T15:19:07.447Z,35.5
2023-05-19T15:24:58.980Z,35.8
2023-05-19T15:30:34.672Z,33.5
2023-05-19T15:36:11.975Z,34.8
2023-05-19T15:42:02.930Z,35.5
2023-05-19T15:47:55.158Z,34.2
2023-05-19T15:53:47.178Z,35.8
2023-05-19T15:59:22.876Z,35.4
2023-05-19T16:05:02.114Z,35.7
2023-05-19T16:10:54.416Z,35.5
2023-05-19T16:16:45.926Z,35.3
2023-05-19T16:22:23.558Z,34.9
2023-05-19T16:28:00.058Z,34.6
2023-05-19T16:33:36.167Z,34.3
2023-05-19T16:39:13.120Z,34
2023-05-19T16:44:50.767Z,33.7
2023-05-19T16:50:28.341Z,33.4
2023-05-19T16:56:20.500Z,33.1
2023-05-19T17:01:57.795Z,32.9
2023-05-19T17:07:06.376Z,32.6
2023-05-19T17:12:43.662Z,32.3
2023-05-19T17:18:20.652Z,32
2023-05-19T17:23:56.895Z,31.5
2023-05-19T17:29:48.094Z,30.6
2023-05-19T17:35:27.042Z,29.9
2023-05-19T17:41:04.323Z,29.3
2023-05-19T17:46:55.104Z,28.8
2023-05-19T17:52:31.689Z,28.4
2023-05-19T17:57:36.890Z,28
2023-05-19T18:02:57.499Z,27.7
2023-05-19T18:08:35.220Z,27.4
2023-05-19T18:14:14.451Z,27.1
2023-05-19T18:19:50.970Z,26.9
2023-05-19T18:25:27.390Z,26.7
2023-05-19T18:31:03.067Z,26.5
2023-05-19T18:36:23.885Z,26.3
2023-05-19T18:41:44.720Z,26.1
2023-05-19T18:46:50.054Z,26
2023-05-19T18:51:55.089Z,25.9
2023-05-19T18:57:17.082Z,25.7
2023-05-19T19:02:06.937Z,25.6
2023-05-19T19:07:11.807Z,25.4
2023-05-19T19:12:50.167Z,25.2
2023-05-19T19:18:26.498Z,25
2023-05-19T19:24:02.057Z,25.1
2023-05-19T19:29:38.820Z,25.6
2023-05-19T19:35:17.324Z,26.4
2023-05-19T19:40:53.153Z,27.2
2023-05-19T19:46:30.200Z,28.1
2023-05-19T19:52:21.911Z,29
2023-05-19T19:57:57.171Z,30
2023-05-19T20:03:52.821Z,30.9
2023-05-19T20:09:29.123Z,31.9
2023-05-19T20:14:50.638Z,32.8
2023-05-19T20:20:29.522Z,33.3
2023-05-19T20:26:26.242Z,33.5
2023-05-19T20:32:04.293Z,33.7
2023-05-19T20:37:42.604Z,33.8
2023-05-19T20:43:02.815Z,33.8
2023-05-19T20:48:39.208Z,33.9
2023-05-19T20:54:15.790Z,33.9
2023-05-19T20:59:51.389Z,33.9
2023-05-19T21:05:43.664Z,33.9
2023-05-19T21:11:20.328Z,33.9
2023-05-19T21:16:55.945Z,33.9
2023-05-19T21:22:47.731Z,33.9
2023-05-19T21:28:24.397Z,33.9
2023-05-19T21:34:15.318Z,33.8
2023-05-19T21:40:02.205Z,33.8
2023-05-19T21:45:56.728Z,33.8
2023-05-19T21:51:32.863Z,33.8
2023-05-19T21:57:23.927Z,33.7
2023-05-19T22:03:16.625Z,33.7
2023-05-19T22:09:08.226Z,33.6
2023-05-19T22:14:58.757Z,33.5
2023-05-19T22:20:35.894Z,33.5
2023-05-19T22:26:39.712Z,33.4
2023-05-19T22:32:33.943Z,33.4
2023-05-19T22:38:27.245Z,33.3
2023-05-19T22:44:19.013Z,33.3
2023-05-19T22:50:13.456Z,33.2
2023-05-19T22:56:06.252Z,33.2
2023-05-19T23:01:57.169Z,33.1
2023-05-19T23:07:48.104Z,33.1
2023-05-19T23:13:40.149Z,33
2023-05-19T23:19:32.464Z,32.9
2023-05-19T23:25:24.457Z,32.9
2023-05-19T23:31:16.609Z,32.8
2023-05-19T23:37:09.845Z,32.8
2023-05-19T23:43:00.498Z,32.8
2023-05-19T23:48:52.669Z,32.7
2023-05-19T23:54:44.304Z,32.6
